Time;durP1;ratioP1;P1;durP2;ratioP2;P2;SDS_P1;SDS_P2;PMS_P1;PMS_P2;Temp;Humidity;BMP_temperature;BMP_pressure;BME280_temperature;BME280_humidity;BME280_pressure;Samples;Min_cycle;Max_cycle;Signal;HPM_P1;HPM_P2
2023/08/28 00:02:06;;;;;;;6.50;2.50;;;;;;;15.36;100.00;99009.31;109039;1258;60225;-65
2023/08/28 00:04:52;;;;;;;7.10;2.40;;;;;;;15.36;100.00;99018.39;109055;1258;72706;-65
2023/08/28 00:07:39;;;;;;;7.00;2.30;;;;;;;15.36;100.00;99018.27;108995;1258;69001;-65
2023/08/28 00:10:25;;;;;;;8.00;2.80;;;;;;;15.36;100.00;99027.38;109052;1257;71100;-64
2023/08/28 00:13:11;;;;;;;8.80;2.50;;;;;;;15.36;100.00;99026.80;109127;1257;59702;-64
2023/08/28 00:15:58;;;;;;;7.40;2.20;;;;;;;15.35;100.00;99027.77;109075;1258;61261;-67
2023/08/28 00:18:44;;;;;;;7.60;2.90;;;;;;;15.32;100.00;99028.63;109047;1258;74087;-64
2023/08/28 00:21:31;;;;;;;7.00;2.60;;;;;;;15.30;100.00;99028.96;109054;1258;67832;-66
2023/08/28 00:24:17;;;;;;;7.20;2.40;;;;;;;15.29;100.00;99030.78;108981;1258;72744;-64
2023/08/28 00:27:04;;;;;;;5.70;2.00;;;;;;;15.30;100.00;99034.23;109035;1258;60616;-63
2023/08/28 00:29:50;;;;;;;7.60;2.50;;;;;;;15.29;100.00;99036.45;109065;1258;59993;-64
2023/08/28 00:32:37;;;;;;;6.80;2.30;;;;;;;15.30;100.00;99037.48;109047;1258;74310;-65
2023/08/28 00:35:24;;;;;;;7.30;2.20;;;;;;;15.29;100.00;99035.23;109065;1258;68866;-65
2023/08/28 00:38:10;;;;;;;6.00;2.20;;;;;;;15.29;100.00;99035.04;109049;1258;73447;-64
2023/08/28 00:40:56;;;;;;;5.70;2.00;;;;;;;15.29;100.00;99039.46;108977;1258;60576;-66
2023/08/28 00:43:43;;;;;;;6.50;2.00;;;;;;;15.27;100.00;99046.41;109106;1258;61206;-64
2023/08/28 00:46:30;;;;;;;5.30;1.80;;;;;;;15.24;100.00;99056.37;109062;1258;71786;-63
2023/08/28 00:49:17;;;;;;;6.10;1.90;;;;;;;15.22;100.00;99059.22;109044;1258;66531;-64
2023/08/28 00:52:03;;;;;;;5.30;1.80;;;;;;;15.21;100.00;99057.99;109010;1258;72666;-63
2023/08/28 00:54:50;;;;;;;6.70;1.80;;;;;;;15.19;100.00;99067.44;108959;1258;59616;-65
2023/08/28 00:57:36;;;;;;;5.00;1.70;;;;;;;15.15;100.00;99075.06;109043;1258;60307;-64
2023/08/28 01:00:22;;;;;;;5.70;1.90;;;;;;;15.11;100.00;99070.86;109094;1258;74011;-63
2023/08/28 01:03:09;;;;;;;5.60;1.80;;;;;;;15.08;100.00;99072.98;109007;1258;66706;-64
2023/08/28 01:06:20;;;;;;;6.00;1.80;;;;;;;15.04;100.00;99082.50;109033;1258;72691;-64
2023/08/28 01:09:33;;;;;;;5.70;1.90;;;;;;;15.01;100.00;99088.37;108978;1258;60317;-64
2023/08/28 01:13:00;;;;;;;5.10;1.60;;;;;;;14.98;100.00;99076.79;108967;1258;61296;-65
2023/08/28 01:15:49;;;;;;;5.80;2.00;;;;;;;14.97;100.00;99061.20;109014;1259;74058;-64
2023/08/28 01:18:37;;;;;;;6.60;2.00;;;;;;;14.95;100.00;99059.23;108842;1259;68893;-65
2023/08/28 01:21:25;;;;;;;6.00;2.00;;;;;;;14.93;100.00;99060.84;108991;1258;73729;-65
2023/08/28 01:24:14;;;;;;;6.30;2.10;;;;;;;14.91;100.00;99052.14;109008;1258;60640;-65
2023/08/28 01:27:00;;;;;;;6.30;2.10;;;;;;;14.89;100.00;99051.36;108965;1258;61134;-65
2023/08/28 01:30:11;;;;;;;6.00;1.70;;;;;;;14.85;100.00;99030.55;109115;1258;71625;-64
2023/08/28 01:32:58;;;;;;;7.10;2.20;;;;;;;14.82;100.00;99019.81;109032;1259;67998;-62
2023/08/28 01:35:55;;;;;;;5.70;1.80;;;;;;;14.79;100.00;99019.98;109045;1258;72578;-62
2023/08/28 01:38:49;;;;;;;5.40;1.80;;;;;;;14.76;100.00;99011.57;108977;1258;61097;-63
2023/08/28 01:41:39;;;;;;;6.80;2.20;;;;;;;14.74;100.00;99002.80;109004;1258;61103;-62
2023/08/28 01:44:29;;;;;;;6.60;2.20;;;;;;;14.73;100.00;98998.45;109067;1258;71985;-63
2023/08/28 01:47:15;;;;;;;5.80;2.30;;;;;;;14.71;100.00;98988.02;109025;1258;68697;-63
2023/08/28 01:50:02;;;;;;;6.80;2.10;;;;;;;14.67;100.00;98981.71;109008;1260;72598;-61
2023/08/28 01:52:48;;;;;;;6.30;2.20;;;;;;;14.64;100.00;98973.02;108957;1259;60382;-63
2023/08/28 01:56:09;;;;;;;7.80;2.50;;;;;;;14.61;100.00;98971.43;109045;1258;61359;-63
2023/08/28 01:58:58;;;;;;;6.60;2.40;;;;;;;14.58;100.00;98966.88;108985;1262;72781;-64
2023/08/28 02:01:44;;;;;;;6.40;2.40;;;;;;;14.57;100.00;98991.14;108961;1258;67785;-64
2023/08/28 02:04:31;;;;;;;6.80;2.10;;;;;;;14.54;100.00;99009.48;108997;1258;73803;-63
2023/08/28 02:07:18;;;;;;;6.50;2.20;;;;;;;14.50;100.00;99008.48;109034;1258;59787;-63
2023/08/28 02:10:05;;;;;;;8.00;2.30;;;;;;;14.47;100.00;99027.77;109020;1258;61745;-63
2023/08/28 02:12:53;;;;;;;7.40;2.30;;;;;;;14.46;100.00;99031.98;108945;1258;72683;-63
2023/08/28 02:15:39;;;;;;;6.30;2.30;;;;;;;14.47;100.00;99037.91;109026;1258;66284;-64
2023/08/28 02:18:25;;;;;;;6.10;2.30;;;;;;;14.47;100.00;99041.26;109057;1258;72599;-65
2023/08/28 02:21:12;;;;;;;7.70;2.30;;;;;;;14.49;100.00;99040.17;109001;1258;58735;-65
2023/08/28 02:23:58;;;;;;;6.20;2.30;;;;;;;14.50;100.00;99041.92;109063;1258;60071;-64
2023/08/28 02:26:44;;;;;;;6.50;2.30;;;;;;;14.52;100.00;99043.85;109059;1258;72990;-64
2023/08/28 02:29:30;;;;;;;8.30;2.70;;;;;;;14.54;100.00;99045.02;109047;1258;69322;-66
2023/08/28 02:32:16;;;;;;;6.30;2.20;;;;;;;14.55;100.00;99047.54;109063;1258;73650;-64
2023/08/28 02:35:02;;;;;;;6.20;2.10;;;;;;;14.55;100.00;99055.72;109002;1258;57296;-66
2023/08/28 02:37:48;;;;;;;6.40;2.40;;;;;;;14.57;100.00;99068.00;109056;1258;60259;-66
2023/08/28 02:40:39;;;;;;;7.10;2.10;;;;;;;14.59;100.00;99065.13;109053;1258;74350;-62
2023/08/28 02:43:25;;;;;;;8.00;2.50;;;;;;;14.61;100.00;99064.34;109019;1258;68881;-65
2023/08/28 02:46:11;;;;;;;6.30;2.10;;;;;;;14.64;100.00;99067.09;109046;1262;72705;-64
2023/08/28 02:48:58;;;;;;;6.20;2.30;;;;;;;14.66;100.00;99050.66;108997;1258;60573;-63
2023/08/28 02:51:44;;;;;;;6.40;2.40;;;;;;;14.66;100.00;99044.23;109073;1258;60001;-64
2023/08/28 02:54:31;;;;;;;6.80;2.20;;;;;;;14.64;100.00;99048.05;109072;1258;72974;-64
2023/08/28 02:57:18;;;;;;;6.20;2.10;;;;;;;14.61;100.00;99058.84;109056;1258;68926;-64
2023/08/28 03:00:05;;;;;;;6.90;2.10;;;;;;;14.57;100.00;99059.13;109023;1258;72677;-65
2023/08/28 03:02:52;;;;;;;7.50;2.40;;;;;;;14.50;100.00;99041.21;108959;1258;59421;-64
2023/08/28 03:05:38;;;;;;;6.10;2.10;;;;;;;14.48;100.00;99052.73;109077;1258;61283;-64
2023/08/28 03:08:25;;;;;;;8.00;2.50;;;;;;;14.46;100.00;99064.45;109035;1258;73997;-64
2023/08/28 03:11:11;;;;;;;8.00;2.40;;;;;;;14.45;100.00;99059.16;109074;1259;69342;-63
2023/08/28 03:13:57;;;;;;;5.80;2.00;;;;;;;14.45;100.00;99056.28;109037;1258;73753;-63
2023/08/28 03:16:43;;;;;;;7.10;2.10;;;;;;;14.46;100.00;99046.77;108985;1259;58126;-63
2023/08/28 03:19:30;;;;;;;6.90;2.70;;;;;;;14.44;100.00;99046.98;109076;1258;59996;-63
2023/08/28 03:22:16;;;;;;;7.90;2.30;;;;;;;14.41;100.00;99052.30;109009;1258;74316;-63
2023/08/28 03:25:04;;;;;;;5.90;2.00;;;;;;;14.42;100.00;99049.19;109061;1258;65589;-63
2023/08/28 03:27:51;;;;;;;6.20;2.20;;;;;;;14.42;100.00;99046.52;109025;1258;71403;-63
2023/08/28 03:30:39;;;;;;;7.20;2.50;;;;;;;14.40;100.00;99040.80;109033;1258;60480;-64
2023/08/28 03:33:27;;;;;;;6.90;2.30;;;;;;;14.43;100.00;99040.46;109103;1258;61167;-64
2023/08/28 03:36:13;;;;;;;7.70;2.40;;;;;;;14.40;100.00;99042.40;109056;1258;73833;-64
2023/08/28 03:38:59;;;;;;;6.50;2.60;;;;;;;14.38;100.00;99046.54;109016;1258;67877;-63
2023/08/28 03:41:45;;;;;;;6.50;2.30;;;;;;;14.40;100.00;99041.23;109002;1258;72825;-62
2023/08/28 03:44:32;;;;;;;6.70;2.30;;;;;;;14.39;100.00;99036.98;109002;1258;60871;-63
2023/08/28 03:47:18;;;;;;;6.50;2.20;;;;;;;14.39;100.00;99039.20;108929;1260;60304;-65
2023/08/28 03:50:05;;;;;;;7.30;2.40;;;;;;;14.39;100.00;99042.52;109073;1258;71808;-64
2023/08/28 03:52:51;;;;;;;6.50;2.60;;;;;;;14.37;100.00;99044.02;109018;1257;69311;-65
2023/08/28 03:55:38;;;;;;;6.90;2.70;;;;;;;14.38;100.00;99046.81;109001;1258;72333;-65
2023/08/28 03:58:24;;;;;;;7.20;2.00;;;;;;;14.39;100.00;99053.90;109026;1260;60436;-64
2023/08/28 04:01:11;;;;;;;7.50;2.20;;;;;;;14.41;100.00;99052.13;109067;1257;61822;-66
2023/08/28 04:03:59;;;;;;;8.00;2.20;;;;;;;14.42;100.00;99049.33;108948;1257;73891;-66
2023/08/28 04:06:46;;;;;;;7.30;2.50;;;;;;;14.44;100.00;99043.19;109063;1258;68870;-66
2023/08/28 04:09:34;;;;;;;6.70;2.30;;;;;;;14.43;100.00;99033.46;109040;1257;71441;-65
2023/08/28 04:12:20;;;;;;;6.70;2.00;;;;;;;14.49;100.00;99045.73;109089;1257;58520;-65
2023/08/28 04:15:08;;;;;;;6.20;2.10;;;;;;;14.49;100.00;99050.02;109107;1258;58893;-64
2023/08/28 04:17:56;;;;;;;7.70;2.30;;;;;;;14.49;100.00;99055.38;109084;1258;73224;-63
2023/08/28 04:20:42;;;;;;;7.10;2.50;;;;;;;14.50;100.00;99064.40;109098;1257;67989;-62
2023/08/28 04:23:29;;;;;;;7.60;2.20;;;;;;;14.46;100.00;99069.96;109007;1257;73541;-64
2023/08/28 04:26:15;;;;;;;9.00;2.30;;;;;;;14.44;100.00;99070.19;109045;1257;59248;-63
2023/08/28 04:29:01;;;;;;;6.50;2.40;;;;;;;14.44;100.00;99074.52;109095;1258;60076;-62
2023/08/28 04:31:48;;;;;;;7.00;2.20;;;;;;;14.42;100.00;99085.27;109086;1257;73113;-64
2023/08/28 04:34:34;;;;;;;7.50;2.30;;;;;;;14.40;100.00;99092.41;108954;1258;67802;-65
2023/08/28 04:37:22;;;;;;;6.10;2.20;;;;;;;14.38;100.00;99092.54;109004;1258;71330;-63
2023/08/28 04:40:09;;;;;;;8.40;2.40;;;;;;;14.40;100.00;99095.55;108974;1259;60461;-64
2023/08/28 04:42:56;;;;;;;6.70;2.10;;;;;;;14.45;100.00;99094.02;109012;1258;61438;-66
2023/08/28 04:45:43;;;;;;;6.20;2.30;;;;;;;14.52;100.00;99091.84;109058;1259;72692;-62
2023/08/28 04:48:32;;;;;;;6.70;2.40;;;;;;;14.56;100.00;99085.80;108968;1259;67987;-63
2023/08/28 04:51:19;;;;;;;6.00;1.90;;;;;;;14.57;100.00;99080.23;108951;1258;71323;-64
2023/08/28 04:54:06;;;;;;;8.40;2.20;;;;;;;14.56;100.00;99084.05;109047;1258;60485;-63
2023/08/28 04:56:52;;;;;;;8.00;2.00;;;;;;;14.56;100.00;99077.75;108995;1258;59116;-64
2023/08/28 04:59:39;;;;;;;7.70;2.40;;;;;;;14.58;100.00;99081.13;108989;1259;70897;-63
2023/08/28 05:02:25;;;;;;;7.20;2.50;;;;;;;14.57;100.00;99076.58;109013;1261;68785;-66
2023/08/28 05:05:13;;;;;;;7.20;1.80;;;;;;;14.63;100.00;99084.66;109027;1259;72403;-66
2023/08/28 05:08:01;;;;;;;7.40;2.30;;;;;;;14.67;100.00;99080.91;108994;1258;59645;-67
2023/08/28 05:10:47;;;;;;;7.40;2.40;;;;;;;14.72;100.00;99081.95;109066;1259;60277;-65
2023/08/28 05:13:34;;;;;;;7.40;2.20;;;;;;;14.79;100.00;99086.55;108971;1259;71527;-66
2023/08/28 05:16:21;;;;;;;6.50;2.10;;;;;;;14.84;100.00;99084.07;109009;1258;65811;-64
2023/08/28 05:19:07;;;;;;;7.20;2.30;;;;;;;14.88;100.00;99087.13;108982;1259;73535;-66
2023/08/28 05:21:56;;;;;;;7.80;2.20;;;;;;;14.94;100.00;99091.48;108947;1261;60533;-65
2023/08/28 05:24:43;;;;;;;6.40;2.10;;;;;;;15.01;100.00;99089.61;108996;1259;58720;-65
2023/08/28 05:27:29;;;;;;;6.80;2.30;;;;;;;15.08;100.00;99094.55;108981;1258;73921;-65
2023/08/28 05:30:16;;;;;;;6.80;2.10;;;;;;;15.16;100.00;99101.02;108981;1259;66483;-65
2023/08/28 05:33:02;;;;;;;6.80;2.10;;;;;;;15.22;100.00;99094.40;109015;1260;73722;-66
2023/08/28 05:35:50;;;;;;;8.60;2.10;;;;;;;15.29;100.00;99083.45;108973;1258;58528;-67
2023/08/28 05:38:36;;;;;;;7.60;2.10;;;;;;;15.37;100.00;99083.61;108995;1259;61182;-66
2023/08/28 05:41:23;;;;;;;8.50;2.20;;;;;;;15.46;100.00;99085.36;109015;1259;73080;-67
2023/08/28 05:44:10;;;;;;;6.80;1.90;;;;;;;15.56;100.00;99088.46;109013;1259;68982;-65
2023/08/28 05:46:58;;;;;;;8.80;2.10;;;;;;;15.69;100.00;99085.54;108950;1259;73740;-63
2023/08/28 05:49:44;;;;;;;7.40;2.00;;;;;;;15.85;100.00;99087.56;108947;1261;60225;-63
2023/08/28 05:52:31;;;;;;;7.00;2.10;;;;;;;16.04;100.00;99088.54;108953;1259;61064;-63
2023/08/28 05:55:17;;;;;;;6.00;2.20;;;;;;;16.26;99.61;99083.14;109081;1259;74284;-62
2023/08/28 05:58:03;;;;;;;5.90;2.30;;;;;;;16.51;98.30;99081.08;109003;1260;67857;-65
2023/08/28 06:00:50;;;;;;;7.40;2.20;;;;;;;16.81;96.97;99083.86;108964;1260;72511;-66
2023/08/28 06:03:38;;;;;;;7.70;2.40;;;;;;;17.18;94.98;99083.79;108999;1259;57408;-65
2023/08/28 06:06:24;;;;;;;8.10;2.30;;;;;;;17.56;92.45;99078.45;109033;1263;60240;-66
2023/08/28 06:09:10;;;;;;;6.20;1.80;;;;;;;17.97;90.63;99076.60;109036;1258;71038;-68
2023/08/28 06:11:57;;;;;;;7.40;2.40;;;;;;;18.50;88.76;99075.98;108987;1259;67786;-66
2023/08/28 06:14:43;;;;;;;7.40;1.90;;;;;;;19.02;85.94;99074.20;108971;1261;72768;-66
2023/08/28 06:17:31;;;;;;;6.00;2.00;;;;;;;19.62;84.06;99068.59;108945;1263;57818;-66
2023/08/28 06:20:17;;;;;;;5.90;2.10;;;;;;;20.38;81.52;99067.34;108974;1259;58751;-65
2023/08/28 06:23:04;;;;;;;6.80;2.00;;;;;;;21.50;78.53;99073.52;109042;1258;73050;-65
2023/08/28 06:25:51;;;;;;;6.30;1.70;;;;;;;22.86;71.75;99074.29;108990;1259;67955;-63
2023/08/28 06:28:38;;;;;;;5.50;1.60;;;;;;;24.25;67.48;99079.45;109003;1261;74015;-65
2023/08/28 06:31:24;;;;;;;5.90;1.80;;;;;;;25.66;62.77;99088.07;109003;1259;57292;-65
2023/08/28 06:34:10;;;;;;;6.20;1.80;;;;;;;26.84;55.29;99086.85;109033;1260;60496;-67
2023/08/28 06:36:57;;;;;;;5.80;1.50;;;;;;;27.62;50.28;99083.36;108979;1259;72780;-64
2023/08/28 06:39:43;;;;;;;5.60;1.60;;;;;;;28.08;47.99;99085.58;109023;1260;68913;-66
2023/08/28 06:42:29;;;;;;;5.40;1.50;;;;;;;28.64;46.39;99086.45;108817;1260;207661;-65
2023/08/28 06:45:16;;;;;;;5.60;1.60;;;;;;;29.07;43.41;99086.11;109043;1259;57698;-66
2023/08/28 06:48:03;;;;;;;5.60;1.40;;;;;;;29.41;42.80;99087.34;109019;1259;60212;-67
2023/08/28 06:50:51;;;;;;;5.40;1.50;;;;;;;29.18;41.25;99093.29;109019;1260;73088;-65
2023/08/28 06:53:38;;;;;;;6.30;1.50;;;;;;;29.56;42.38;99093.27;108998;1259;68931;-66
2023/08/28 06:56:25;;;;;;;6.30;1.50;;;;;;;30.20;41.25;99090.93;108945;1260;70653;-64
2023/08/28 06:59:13;;;;;;;6.40;1.50;;;;;;;30.74;39.90;99092.55;109021;1259;57372;-67
2023/08/28 07:01:59;;;;;;;6.10;1.30;;;;;;;30.90;38.55;99089.95;109056;1258;60103;-68
2023/08/28 07:04:46;;;;;;;5.60;1.10;;;;;;;31.24;37.84;99097.64;109013;1259;71744;-69
2023/08/28 07:07:32;;;;;;;4.80;1.20;;;;;;;30.75;36.77;99096.39;109067;1260;66514;-68
2023/08/28 07:10:18;;;;;;;5.90;1.50;;;;;;;30.91;37.38;99096.48;109104;1258;73661;-67
2023/08/28 07:13:05;;;;;;;5.90;1.30;;;;;;;31.35;36.60;99099.14;108969;1259;57312;-69
2023/08/28 07:15:55;;;;;;;5.50;1.30;;;;;;;31.49;35.70;99102.61;109007;1259;60302;-68
2023/08/28 07:18:43;;;;;;;5.40;1.10;;;;;;;31.90;35.37;99106.27;109022;1259;72212;-67
2023/08/28 07:21:30;;;;;;;5.70;1.40;;;;;;;32.33;34.81;99109.59;109012;1259;66923;-69
2023/08/28 07:24:16;;;;;;;6.00;1.10;;;;;;;32.52;34.19;99112.59;109018;1260;73659;-68
2023/08/28 07:27:02;;;;;;;5.50;1.00;;;;;;;32.78;33.85;99114.27;109025;1258;57372;-67
2023/08/28 07:29:51;;;;;;;5.00;1.20;;;;;;;33.15;34.08;99110.38;108979;1261;60724;-70
2023/08/28 07:32:37;;;;;;;5.30;1.00;;;;;;;33.37;32.42;99108.70;109067;1258;73178;-71
2023/08/28 07:35:23;;;;;;;6.00;1.50;;;;;;;33.49;32.60;99111.27;109029;1259;66531;-70
2023/08/28 07:38:10;;;;;;;5.20;1.20;;;;;;;33.81;32.22;99116.24;109002;1258;73663;-69
2023/08/28 07:40:57;;;;;;;5.70;1.10;;;;;;;33.74;31.31;99113.88;109052;1257;58828;-67
2023/08/28 07:43:44;;;;;;;5.90;1.40;;;;;;;33.86;31.27;99113.41;109037;1257;58717;-67
2023/08/28 07:46:31;;;;;;;4.70;1.20;;;;;;;34.15;30.99;99113.75;109056;1257;72823;-69
2023/08/28 07:49:17;;;;;;;5.70;1.30;;;;;;;33.53;31.51;99117.17;109065;1257;66427;-69
2023/08/28 07:52:04;;;;;;;4.50;1.00;;;;;;;33.23;31.81;99113.48;109024;1257;72736;-69
2023/08/28 07:54:51;;;;;;;4.80;1.30;;;;;;;33.29;32.00;99117.06;109067;1257;57831;-68
2023/08/28 07:57:37;;;;;;;5.10;1.30;;;;;;;33.82;31.36;99119.69;109059;1257;58863;-66
2023/08/28 08:00:23;;;;;;;5.90;1.30;;;;;;;33.78;31.03;99117.04;109075;1257;72646;-69
2023/08/28 08:03:09;;;;;;;5.80;1.40;;;;;;;32.72;31.55;99121.23;109076;1257;68948;-65
2023/08/28 08:05:55;;;;;;;7.50;1.60;;;;;;;32.25;32.68;99133.25;108997;1257;72923;-68
2023/08/28 08:08:42;;;;;;;6.50;2.20;;;;;;;31.51;33.78;99138.66;108983;1257;57668;-64
2023/08/28 08:11:29;;;;;;;7.00;2.00;;;;;;;30.22;35.53;99138.37;109065;1257;61117;-65
2023/08/28 08:14:15;;;;;;;7.10;2.20;;;;;;;28.98;37.98;99139.59;109052;1257;73095;-66
2023/08/28 08:17:01;;;;;;;6.20;2.20;;;;;;;28.22;39.83;99150.63;109065;1257;67728;-65
2023/08/28 08:19:48;;;;;;;7.10;2.30;;;;;;;27.35;41.67;99152.52;109109;1257;72047;-66
2023/08/28 08:22:34;;;;;;;6.50;2.50;;;;;;;26.41;43.80;99154.27;109064;1257;57747;-69
2023/08/28 08:25:22;;;;;;;8.50;3.20;;;;;;;25.82;45.83;99158.10;109057;1257;59987;-67
2023/08/28 08:28:08;;;;;;;7.30;3.50;;;;;;;25.06;47.39;99159.21;109078;1257;72850;-64
2023/08/28 08:30:54;;;;;;;7.60;3.70;;;;;;;24.47;49.30;99153.92;109072;1257;69028;-65
2023/08/28 08:33:40;;;;;;;7.00;3.30;;;;;;;24.42;50.33;99155.38;109063;1257;72438;-65
2023/08/28 08:36:26;;;;;;;7.30;3.20;;;;;;;25.86;48.14;99152.52;109027;1257;57715;-63
2023/08/28 08:39:13;;;;;;;7.00;3.30;;;;;;;27.58;43.88;99148.97;109060;1257;60918;-66
2023/08/28 08:41:59;;;;;;;7.30;3.30;;;;;;;28.77;39.44;99154.23;109067;1257;74099;-66
2023/08/28 08:44:45;;;;;;;7.70;3.50;;;;;;;29.77;36.77;99159.74;109120;1257;67253;-66
2023/08/28 08:47:35;;;;;;;7.80;3.40;;;;;;;30.14;35.65;99163.83;109094;1257;72553;-66
2023/08/28 08:50:23;;;;;;;7.30;3.40;;;;;;;29.39;36.75;99172.53;108962;1257;58679;-66
2023/08/28 08:53:24;;;;;;;6.60;2.90;;;;;;;30.01;36.10;99173.84;109101;1257;60361;-68
2023/08/28 08:56:17;;;;;;;7.30;3.20;;;;;;;29.60;36.33;99179.40;108994;1257;73822;-65
2023/08/28 08:59:03;;;;;;;7.10;3.00;;;;;;;30.26;36.04;99179.16;109016;1257;67704;-65
2023/08/28 09:01:50;;;;;;;8.30;2.90;;;;;;;31.11;34.92;99173.41;109076;1257;72957;-65
2023/08/28 09:04:36;;;;;;;6.40;2.70;;;;;;;31.69;33.42;99169.35;109082;1257;59108;-65
2023/08/28 09:07:23;;;;;;;6.30;2.60;;;;;;;31.49;32.59;99172.87;109060;1257;60139;-66
2023/08/28 09:10:10;;;;;;;6.40;2.60;;;;;;;31.22;32.53;99170.89;109060;1257;73852;-67
2023/08/28 09:12:56;;;;;;;5.70;2.10;;;;;;;31.61;32.30;99173.55;109085;1257;68887;-66
2023/08/28 09:15:42;;;;;;;7.70;2.40;;;;;;;32.25;31.50;99183.41;108977;1258;72605;-67
2023/08/28 09:18:30;;;;;;;6.70;2.30;;;;;;;32.67;30.68;99177.73;109008;1258;57901;-66
2023/08/28 09:21:16;;;;;;;5.70;2.10;;;;;;;32.23;30.80;99182.23;109016;1258;60061;-66
2023/08/28 09:24:09;;;;;;;7.50;2.50;;;;;;;31.58;31.88;99181.74;108998;1258;73801;-66
2023/08/28 09:26:56;;;;;;;5.70;2.20;;;;;;;32.38;32.05;99188.77;108983;1258;68828;-66
2023/08/28 09:29:42;;;;;;;6.40;2.40;;;;;;;33.10;30.57;99194.48;109060;1257;73317;-67
2023/08/28 09:32:28;;;;;;;6.10;2.20;;;;;;;32.95;30.04;99195.02;109073;1257;57510;-68
2023/08/28 09:35:14;;;;;;;6.10;2.00;;;;;;;32.35;31.40;99194.04;109148;1257;60394;-65
2023/08/28 09:38:01;;;;;;;6.30;2.00;;;;;;;31.51;31.93;99193.24;109064;1257;72895;-67
2023/08/28 09:40:48;;;;;;;6.20;2.10;;;;;;;31.36;32.05;99199.61;109114;1257;66660;-69
2023/08/28 09:43:35;;;;;;;5.70;1.80;;;;;;;31.08;32.65;99192.61;109044;1257;72473;-68
2023/08/28 09:46:21;;;;;;;5.70;1.80;;;;;;;31.74;32.40;99193.41;108986;1257;57749;-65
2023/08/28 09:49:10;;;;;;;6.20;1.90;;;;;;;31.99;31.47;99191.77;109070;1257;60631;-65
2023/08/28 09:51:59;;;;;;;5.60;1.70;;;;;;;32.65;30.16;99197.36;108940;1257;72864;-66
2023/08/28 09:55:00;;;;;;;6.00;1.80;;;;;;;33.47;29.58;99188.05;109090;1257;66272;-66
2023/08/28 09:57:47;;;;;;;5.90;1.60;;;;;;;34.00;28.51;99185.90;109030;1257;71335;-67
2023/08/28 10:00:35;;;;;;;7.70;3.80;;;;;;;34.64;27.32;99182.21;109070;1257;58391;-64
2023/08/28 10:03:23;;;;;;;5.80;1.90;;;;;;;35.13;26.96;99174.73;109080;1257;60411;-69
2023/08/28 10:06:11;;;;;;;6.10;1.70;;;;;;;34.99;27.01;99180.79;109014;1257;73915;-66
2023/08/28 10:09:00;;;;;;;5.50;1.50;;;;;;;34.82;26.85;99185.88;109069;1257;68156;-68
2023/08/28 10:11:50;;;;;;;5.70;1.50;;;;;;;34.84;26.33;99188.81;109068;1257;72212;-66
2023/08/28 10:14:37;;;;;;;6.10;1.50;;;;;;;35.04;26.24;99185.94;109035;1257;57764;-67
2023/08/28 10:17:27;;;;;;;5.60;1.60;;;;;;;34.86;26.51;99187.88;109117;1257;60589;-67
2023/08/28 10:20:18;;;;;;;5.30;1.40;;;;;;;34.92;26.15;99189.54;109057;1257;71721;-66
2023/08/28 10:23:06;;;;;;;5.20;1.60;;;;;;;35.15;26.03;99184.98;109083;1257;68130;-64
2023/08/28 10:25:55;;;;;;;6.50;1.50;;;;;;;35.04;26.25;99181.31;109076;1257;71399;-67
2023/08/28 10:28:43;;;;;;;5.00;1.40;;;;;;;34.58;27.06;99181.55;109055;1257;57338;-67
2023/08/28 10:31:30;;;;;;;5.30;1.40;;;;;;;34.38;26.71;99179.50;109114;1257;58955;-65
2023/08/28 10:34:19;;;;;;;5.90;1.30;;;;;;;34.49;27.09;99175.39;109045;1257;72276;-66
2023/08/28 10:37:10;;;;;;;5.50;1.50;;;;;;;34.71;26.80;99171.84;109100;1257;67955;-66
2023/08/28 10:40:12;;;;;;;5.20;1.50;;;;;;;34.82;26.61;99174.88;109061;1257;71611;-69
2023/08/28 10:43:00;;;;;;;5.60;1.40;;;;;;;33.58;26.56;99173.39;109078;1257;57970;-66
2023/08/28 10:45:51;;;;;;;4.70;1.10;;;;;;;32.19;27.88;99173.25;109089;1257;59200;-68
2023/08/28 10:48:38;;;;;;;6.60;1.30;;;;;;;32.10;27.07;99174.23;109059;1257;71052;-66
2023/08/28 10:51:36;;;;;;;4.90;1.10;;;;;;;31.80;27.61;99170.13;109104;1257;66643;-66
2023/08/28 10:54:22;;;;;;;6.30;1.20;;;;;;;32.12;27.66;99173.40;109030;1257;71811;-66
2023/08/28 10:57:23;;;;;;;5.10;1.40;;;;;;;32.68;28.06;99183.01;109064;1257;57251;-67
2023/08/28 11:00:15;;;;;;;5.10;1.40;;;;;;;33.32;27.51;99183.68;108976;1258;60492;-67
2023/08/28 11:03:14;;;;;;;6.90;1.50;;;;;;;33.98;26.63;99185.54;108959;1257;73313;-68
2023/08/28 11:06:43;;;;;;;4.90;1.30;;;;;;;34.47;26.03;99190.89;109084;1257;66775;-68
2023/08/28 11:09:29;;;;;;;5.10;1.10;;;;;;;34.60;25.57;99203.05;109103;1257;72894;-66
2023/08/28 11:12:19;;;;;;;4.50;0.90;;;;;;;34.68;24.50;99206.64;109094;1257;57372;-66
2023/08/28 11:15:06;;;;;;;5.70;1.10;;;;;;;34.31;23.88;99211.65;109106;1257;60556;-65
2023/08/28 11:18:24;;;;;;;6.30;2.20;;;;;;;33.88;24.89;99211.66;109093;1257;74443;-65
2023/08/28 11:21:10;;;;;;;4.80;1.10;;;;;;;33.58;25.54;99196.59;109063;1257;67937;-67
2023/08/28 11:23:58;;;;;;;5.70;1.40;;;;;;;33.21;25.52;99201.48;109071;1257;71448;-65
2023/08/28 11:26:44;;;;;;;4.40;1.00;;;;;;;32.67;25.20;99206.65;109033;1257;57254;-65
2023/08/28 11:29:31;;;;;;;5.10;1.00;;;;;;;32.07;26.30;99212.88;109032;1257;60391;-66
2023/08/28 11:32:18;;;;;;;5.00;1.10;;;;;;;31.94;26.29;99213.92;109072;1257;73131;-66
2023/08/28 11:35:10;;;;;;;5.30;1.20;;;;;;;31.66;26.75;99211.10;109139;1257;67780;-66
2023/08/28 11:37:57;;;;;;;5.00;1.10;;;;;;;31.03;27.41;99202.16;109089;1257;73576;-64
2023/08/28 11:40:43;;;;;;;5.60;1.00;;;;;;;30.56;28.42;99203.50;109094;1257;58330;-67
2023/08/28 11:43:42;;;;;;;6.00;1.30;;;;;;;30.39;28.61;99204.01;109044;1257;59242;-66
2023/08/28 11:46:28;;;;;;;6.20;1.20;;;;;;;30.19;29.29;99206.64;109024;1257;73099;-65
2023/08/28 11:49:14;;;;;;;6.00;1.30;;;;;;;30.19;29.35;99208.23;109111;1257;67986;-65
2023/08/28 11:52:02;;;;;;;9.00;1.20;;;;;;;30.09;30.03;99204.80;109073;1257;71702;-67
2023/08/28 11:54:57;;;;;;;6.00;1.30;;;;;;;30.09;30.00;99206.88;109070;1257;57982;-66
2023/08/28 11:57:44;;;;;;;5.30;1.10;;;;;;;29.84;29.98;99203.32;109013;1257;60287;-64
2023/08/28 12:00:31;;;;;;;5.10;1.20;;;;;;;29.69;30.41;99199.40;109102;1257;73175;-64
2023/08/28 12:03:19;;;;;;;5.40;1.30;;;;;;;29.59;30.11;99196.65;109104;1257;65925;-64
2023/08/28 12:06:09;;;;;;;5.50;1.60;;;;;;;29.37;29.71;99197.29;108984;1257;72837;-63
2023/08/28 12:08:56;;;;;;;4.90;1.10;;;;;;;28.71;30.94;99204.26;109057;1257;57333;-65
2023/08/28 12:11:43;;;;;;;4.60;1.10;;;;;;;28.07;32.05;99205.55;109073;1257;59041;-67
2023/08/28 12:14:33;;;;;;;5.80;1.50;;;;;;;27.40;32.68;99205.79;109095;1257;73050;-66
2023/08/28 12:17:23;;;;;;;6.00;1.80;;;;;;;26.81;33.27;99215.09;108977;1257;67380;-66
2023/08/28 12:20:19;;;;;;;6.80;1.50;;;;;;;26.47;33.99;99214.27;108985;1257;73203;-65
2023/08/28 12:23:06;;;;;;;4.60;1.20;;;;;;;26.10;34.78;99213.09;109057;1257;57568;-65
2023/08/28 12:25:53;;;;;;;5.70;1.40;;;;;;;25.63;35.01;99218.98;109083;1257;59008;-69
2023/08/28 12:28:42;;;;;;;4.50;1.10;;;;;;;25.24;36.35;99223.11;109066;1257;74239;-64
2023/08/28 12:31:34;;;;;;;5.00;1.40;;;;;;;25.12;36.96;99222.76;108952;1257;67882;-64
2023/08/28 12:34:20;;;;;;;6.10;1.60;;;;;;;25.02;37.25;99226.36;109059;1257;72903;-66
2023/08/28 12:37:11;;;;;;;4.90;1.20;;;;;;;24.88;37.37;99221.34;109108;1257;57374;-66
2023/08/28 12:39:58;;;;;;;5.20;1.40;;;;;;;24.92;37.77;99212.09;108999;1258;59213;-66
2023/08/28 12:42:45;;;;;;;5.50;1.40;;;;;;;25.05;37.90;99212.41;109103;1257;73082;-67
2023/08/28 12:45:33;;;;;;;5.50;1.50;;;;;;;25.13;37.79;99209.38;109120;1257;67471;-68
2023/08/28 12:48:20;;;;;;;5.10;1.40;;;;;;;25.13;38.19;99217.13;109081;1257;73778;-65
2023/08/28 12:51:06;;;;;;;4.90;1.40;;;;;;;25.05;38.39;99221.95;109087;1257;58202;-66
2023/08/28 12:53:53;;;;;;;5.10;1.40;;;;;;;24.94;38.73;99220.13;109112;1258;58994;-66
2023/08/28 12:56:39;;;;;;;4.90;1.30;;;;;;;24.90;39.28;99218.19;109111;1257;73241;-66
2023/08/28 12:59:26;;;;;;;4.80;1.40;;;;;;;24.76;39.03;99216.80;109133;1257;68602;-68